FTTA

Sarh Airport

Sarh, Chad
METAR FTTA 210400Z 00000KT 9999 TS FEW050CB 25/24 Q1012
Observed Flight Rules
Jul-21 @ 04:00 UTC (23 minutes ago) Visual Flight Rules
Visibility Clouds Conditions
10,000+ meters
  • Few at 5,000' AGL
  • Thunderstorm
Temperatures Readings
Current 25°C / 77°F
Dewpoint 24°C / 75°F
Humidity 94%
Altimeter 29.88" Hg
Pressure 1012 hPa
Elevation 365
METAR FTTA 210400Z 00000KT 9999 TS FEW050CB 25/24 Q1012
Observed Flight Rules
Jul-21 @ 04:00 UTC
(23 minutes ago)
VFR
Clouds
  • Few at 5,000' AGL
Conditions
  • Thunderstorm
Temperature Dewpoint
25°C / 77°F 24°C / 75°F
Humidity Altimeter Pressure
94% 29.88" Hg 1012 hPa